Аэропорт: Симферополь. Симферополь

ICAO: URFF

METAR:
2019-09-21 16:00:00
URFF 211600Z 29002MPS CAVOK 10/M01 Q1023 R01/090095 NOSIG
METAR:
2019-09-21 13:48:00
TAF URFF 211348Z 2115/2215 29006G11MPS 9999 SCT030CB BECMG 2117/2119 19003MPS BECMG 2207/2209 26006G11MPS